Time;durP1;ratioP1;P1;durP2;ratioP2;P2;SDS_P1;SDS_P2;PMS_P1;PMS_P2;Temp;Humidity;BMP_temperature;BMP_pressure;BME280_temperature;BME280_humidity;BME280_pressure;Samples;Min_cycle;Max_cycle;Signal;HPM_P1;HPM_P2
2023/01/25 00:00:38;;;;;;;45.90;20.77;;;;;;;;;;5014827;28;20033;-89
2023/01/25 00:03:03;;;;;;;40.83;19.53;;;;;;;;;;5014820;28;20029;-90
2023/01/25 00:05:29;;;;;;;52.53;21.30;;;;;;;;;;5016361;28;20033;-89
2023/01/25 00:07:54;;;;;;;48.33;20.70;;;;;;;;;;4998979;28;20033;-90
2023/01/25 00:10:19;;;;;;;47.60;20.80;;;;;;;;;;5016343;28;20041;-90
2023/01/25 00:12:45;;;;;;;43.07;20.27;;;;;;;;;;4997949;28;20028;-90
2023/01/25 00:15:10;;;;;;;46.70;20.30;;;;;;;;;;5016218;28;20096;-89
2023/01/25 00:17:35;;;;;;;51.17;22.27;;;;;;;;;;4998605;28;20112;-89
2023/01/25 00:20:00;;;;;;;50.40;21.33;;;;;;;;;;5014747;28;20032;-89
2023/01/25 00:22:26;;;;;;;49.67;21.67;;;;;;;;;;5015345;28;20018;-90
2023/01/25 00:24:51;;;;;;;44.93;20.47;;;;;;;;;;5016018;28;20029;-89
2023/01/25 00:27:16;;;;;;;49.87;21.67;;;;;;;;;;5014827;28;20382;-89
2023/01/25 00:29:41;;;;;;;51.33;23.67;;;;;;;;;;4998268;28;20018;-89
2023/01/25 00:32:09;;;;;;;50.60;22.27;;;;;;;;;;4997558;28;20080;-90
2023/01/25 00:34:45;;;;;;;49.50;20.37;;;;;;;;;;5015774;28;20022;-89
2023/01/25 00:37:12;;;;;;;56.67;21.17;;;;;;;;;;4998298;28;20164;-90
2023/01/25 00:39:38;;;;;;;54.10;22.90;;;;;;;;;;4998158;28;20033;-90
2023/01/25 00:42:03;;;;;;;52.07;22.37;;;;;;;;;;4997866;28;20049;-90
2023/01/25 00:44:28;;;;;;;51.23;21.97;;;;;;;;;;5015422;28;20490;-89
2023/01/25 00:46:53;;;;;;;48.43;21.27;;;;;;;;;;4998237;28;20420;-90
2023/01/25 00:49:19;;;;;;;51.73;22.60;;;;;;;;;;4998005;28;20018;-90
2023/01/25 00:51:44;;;;;;;47.30;21.40;;;;;;;;;;5014418;28;20022;-90
2023/01/25 00:54:09;;;;;;;53.10;22.67;;;;;;;;;;5015462;28;20033;-90
2023/01/25 00:56:34;;;;;;;54.40;22.47;;;;;;;;;;4997990;28;20422;-89
2023/01/25 00:58:59;;;;;;;51.53;22.53;;;;;;;;;;4997928;28;20160;-90
2023/01/25 01:01:25;;;;;;;54.20;23.13;;;;;;;;;;5014793;28;20014;-90
2023/01/25 01:03:50;;;;;;;54.37;23.60;;;;;;;;;;5015254;28;20477;-89
2023/01/25 01:06:15;;;;;;;48.33;21.47;;;;;;;;;;4997674;28;20018;-90
2023/01/25 01:08:41;;;;;;;53.93;21.83;;;;;;;;;;4997789;28;20466;-90
2023/01/25 01:11:08;;;;;;;52.13;22.17;;;;;;;;;;5014775;28;20029;-90
2023/01/25 01:13:34;;;;;;;48.53;21.47;;;;;;;;;;4997590;28;20033;-89
2023/01/25 01:16:01;;;;;;;55.63;21.57;;;;;;;;;;4997740;28;20117;-90
2023/01/25 01:18:26;;;;;;;49.20;22.13;;;;;;;;;;4996790;28;20030;-91
2023/01/25 01:20:52;;;;;;;52.33;22.00;;;;;;;;;;5015047;28;20024;-90
2023/01/25 01:23:18;;;;;;;45.93;21.37;;;;;;;;;;4996890;28;20041;-90
2023/01/25 01:25:43;;;;;;;44.47;19.27;;;;;;;;;;4996699;28;20021;-90
2023/01/25 01:28:09;;;;;;;46.03;21.97;;;;;;;;;;4996863;28;20381;-90
2023/01/25 01:30:35;;;;;;;38.33;18.20;;;;;;;;;;4997285;28;20105;-90
2023/01/25 01:33:00;;;;;;;49.30;21.17;;;;;;;;;;4996758;28;20026;-90
2023/01/25 01:35:27;;;;;;;47.63;21.83;;;;;;;;;;5014679;28;20030;-90
2023/01/25 01:37:52;;;;;;;48.77;21.73;;;;;;;;;;4997017;28;20105;-90
2023/01/25 01:40:17;;;;;;;51.10;21.97;;;;;;;;;;5013328;28;20053;-90
2023/01/25 01:43:03;;;;;;;47.83;21.00;;;;;;;;;;5014164;28;20545;-89
2023/01/25 01:45:40;;;;;;;51.13;22.17;;;;;;;;;;4996250;28;20044;-89
2023/01/25 01:48:08;;;;;;;50.10;22.53;;;;;;;;;;5014634;28;20024;-90
2023/01/25 01:50:34;;;;;;;51.93;23.80;;;;;;;;;;4996649;28;20492;-90
2023/01/25 01:52:59;;;;;;;52.40;23.23;;;;;;;;;;4996794;28;20014;-90
2023/01/25 01:55:24;;;;;;;59.07;24.03;;;;;;;;;;5013793;28;20553;-90
2023/01/25 01:57:54;;;;;;;56.10;24.63;;;;;;;;;;5014266;28;20013;-90
2023/01/25 02:00:22;;;;;;;55.23;23.57;;;;;;;;;;5014304;28;20025;-90
2023/01/25 02:02:48;;;;;;;59.03;24.40;;;;;;;;;;5009041;28;20023;-90
2023/01/25 02:05:18;;;;;;;56.50;23.53;;;;;;;;;;5004045;28;20029;-90
2023/01/25 02:07:45;;;;;;;54.67;22.93;;;;;;;;;;5013409;28;20022;-90
2023/01/25 02:10:11;;;;;;;53.50;22.67;;;;;;;;;;5014015;28;20433;-90
2023/01/25 02:12:37;;;;;;;56.97;24.47;;;;;;;;;;4996558;28;20044;-90
2023/01/25 02:15:02;;;;;;;51.97;22.60;;;;;;;;;;4996483;28;20041;-90
2023/01/25 02:17:29;;;;;;;51.70;22.73;;;;;;;;;;5013928;28;20036;-90
2023/01/25 02:20:13;;;;;;;51.43;23.43;;;;;;;;;;4995713;28;20021;-90
2023/01/25 02:22:41;;;;;;;57.67;24.03;;;;;;;;;;4988950;28;20481;-90
2023/01/25 02:25:10;;;;;;;53.87;22.87;;;;;;;;;;4996081;28;20113;-90
2023/01/25 02:27:38;;;;;;;55.63;24.60;;;;;;;;;;5012837;28;20033;-90
2023/01/25 02:30:04;;;;;;;54.87;23.87;;;;;;;;;;5014194;28;20033;-90
2023/01/25 02:32:30;;;;;;;55.53;23.47;;;;;;;;;;5012178;28;20081;-90
2023/01/25 02:34:55;;;;;;;48.17;20.60;;;;;;;;;;5012396;28;20021;-90
2023/01/25 02:37:21;;;;;;;57.97;24.07;;;;;;;;;;5013532;28;20026;-89
2023/01/25 02:39:46;;;;;;;57.13;23.67;;;;;;;;;;5013660;28;20026;-90
2023/01/25 02:42:11;;;;;;;61.27;25.50;;;;;;;;;;4995439;28;20082;-90
2023/01/25 02:44:37;;;;;;;56.17;24.30;;;;;;;;;;5009364;28;20018;-90
2023/01/25 02:47:02;;;;;;;60.00;24.83;;;;;;;;;;5009178;28;20046;-90
2023/01/25 02:49:27;;;;;;;59.30;22.83;;;;;;;;;;4995927;28;20025;-90
2023/01/25 02:51:56;;;;;;;63.13;24.00;;;;;;;;;;4996013;28;20108;-90
2023/01/25 02:54:23;;;;;;;56.57;24.33;;;;;;;;;;5012713;28;20037;-90
2023/01/25 02:56:48;;;;;;;63.90;24.80;;;;;;;;;;5013650;28;20072;-90
2023/01/25 02:59:13;;;;;;;62.00;25.63;;;;;;;;;;4995784;28;20038;-90
2023/01/25 03:01:40;;;;;;;62.10;26.37;;;;;;;;;;5013383;28;20026;-89
2023/01/25 03:04:05;;;;;;;64.83;25.03;;;;;;;;;;4995625;28;20053;-90
2023/01/25 03:06:31;;;;;;;63.27;25.00;;;;;;;;;;5012703;28;20128;-90
2023/01/25 03:08:56;;;;;;;65.27;26.30;;;;;;;;;;4995657;28;20022;-90
2023/01/25 03:11:21;;;;;;;61.60;25.30;;;;;;;;;;4995252;28;20053;-89
2023/01/25 03:13:46;;;;;;;64.03;25.07;;;;;;;;;;4995394;28;20068;-89
2023/01/25 03:16:12;;;;;;;65.20;25.77;;;;;;;;;;5011612;28;20120;-87
2023/01/25 03:18:38;;;;;;;62.83;23.90;;;;;;;;;;5011461;28;20126;-89
2023/01/25 03:21:04;;;;;;;60.40;22.87;;;;;;;;;;4995509;28;20018;-90
2023/01/25 03:23:29;;;;;;;62.10;24.60;;;;;;;;;;5013245;28;20360;-90
2023/01/25 03:26:02;;;;;;;55.43;23.90;;;;;;;;;;5011101;28;20026;-90
2023/01/25 03:28:27;;;;;;;52.47;22.20;;;;;;;;;;4995491;28;20458;-90
2023/01/25 03:30:53;;;;;;;57.50;23.93;;;;;;;;;;4995513;28;20033;-90
2023/01/25 03:33:18;;;;;;;59.03;23.10;;;;;;;;;;5012966;28;20042;-90
2023/01/25 03:35:43;;;;;;;58.43;25.03;;;;;;;;;;5011524;28;20036;-89
2023/01/25 03:38:08;;;;;;;53.87;23.33;;;;;;;;;;4994673;28;20103;-89
2023/01/25 03:40:34;;;;;;;59.93;24.87;;;;;;;;;;4995227;28;20028;-90
2023/01/25 03:42:59;;;;;;;56.20;22.50;;;;;;;;;;4995328;28;20029;-90
2023/01/25 03:45:24;;;;;;;56.37;22.57;;;;;;;;;;4995388;28;20014;-90
2023/01/25 03:47:50;;;;;;;54.93;23.23;;;;;;;;;;4995178;28;20362;-90
2023/01/25 03:50:15;;;;;;;58.30;25.40;;;;;;;;;;4995040;28;20018;-90
2023/01/25 03:52:44;;;;;;;61.47;26.50;;;;;;;;;;4995438;28;20487;-90
2023/01/25 03:55:09;;;;;;;62.57;25.80;;;;;;;;;;5011758;28;20384;-89
2023/01/25 03:57:34;;;;;;;65.77;25.47;;;;;;;;;;5011683;28;20100;-89
2023/01/25 03:59:59;;;;;;;63.23;24.83;;;;;;;;;;4995062;28;20028;-89
2023/01/25 04:02:24;;;;;;;61.37;24.17;;;;;;;;;;5012943;28;20014;-89
2023/01/25 04:04:50;;;;;;;68.77;26.03;;;;;;;;;;4995221;28;20060;-89
2023/01/25 04:07:15;;;;;;;65.70;25.70;;;;;;;;;;4994583;28;20030;-90
2023/01/25 04:09:40;;;;;;;59.10;24.73;;;;;;;;;;4995118;28;20010;-90
2023/01/25 04:12:05;;;;;;;61.33;24.83;;;;;;;;;;4995113;28;20072;-90
2023/01/25 04:14:30;;;;;;;57.20;23.93;;;;;;;;;;4994952;28;20057;-90
2023/01/25 04:16:56;;;;;;;65.17;25.53;;;;;;;;;;5011294;28;20430;-90
2023/01/25 04:19:21;;;;;;;58.40;24.47;;;;;;;;;;4994537;28;20037;-89
2023/01/25 04:21:46;;;;;;;52.23;23.07;;;;;;;;;;4995032;28;20018;-90
2023/01/25 04:24:14;;;;;;;60.27;23.97;;;;;;;;;;5012312;28;20547;-90
2023/01/25 04:26:39;;;;;;;60.17;24.93;;;;;;;;;;5013562;28;20054;-90
2023/01/25 04:29:04;;;;;;;65.93;26.10;;;;;;;;;;4998324;28;20022;-90
2023/01/25 04:31:29;;;;;;;64.30;26.07;;;;;;;;;;4997900;28;20116;-89
2023/01/25 04:33:55;;;;;;;67.83;26.53;;;;;;;;;;4998249;28;20018;-89
2023/01/25 04:36:20;;;;;;;65.17;24.77;;;;;;;;;;4998456;28;20044;-90
2023/01/25 04:38:45;;;;;;;62.93;24.83;;;;;;;;;;4997897;28;20029;-89
2023/01/25 04:41:10;;;;;;;62.50;25.53;;;;;;;;;;5014752;28;20375;-90
2023/01/25 04:43:36;;;;;;;66.57;25.70;;;;;;;;;;4998124;28;20057;-90
2023/01/25 04:46:01;;;;;;;65.80;26.43;;;;;;;;;;5008663;28;20056;-90
2023/01/25 04:48:26;;;;;;;69.67;25.93;;;;;;;;;;4997760;28;20022;-90
2023/01/25 04:50:52;;;;;;;66.30;25.30;;;;;;;;;;4997581;28;20420;-90
2023/01/25 04:53:17;;;;;;;53.30;21.50;;;;;;;;;;5015692;28;20544;-90
2023/01/25 04:55:46;;;;;;;61.23;25.53;;;;;;;;;;4997974;28;20026;-90
2023/01/25 04:58:11;;;;;;;59.57;23.90;;;;;;;;;;4997800;28;20037;-90
2023/01/25 05:00:37;;;;;;;56.27;23.87;;;;;;;;;;5014567;28;20018;-90
2023/01/25 05:03:02;;;;;;;57.40;23.10;;;;;;;;;;4997877;28;20037;-89
2023/01/25 05:05:27;;;;;;;61.67;24.80;;;;;;;;;;4997647;28;20534;-89
2023/01/25 05:07:52;;;;;;;60.10;24.37;;;;;;;;;;4997737;28;20037;-90
2023/01/25 05:10:18;;;;;;;63.30;25.53;;;;;;;;;;4997506;28;20018;-89
2023/01/25 05:12:43;;;;;;;62.07;24.53;;;;;;;;;;5013812;28;20036;-90
2023/01/25 05:15:08;;;;;;;64.83;25.87;;;;;;;;;;4997637;28;20139;-90
2023/01/25 05:17:33;;;;;;;65.73;25.73;;;;;;;;;;4997549;28;20109;-90
2023/01/25 05:19:58;;;;;;;59.80;24.50;;;;;;;;;;5014738;28;20020;-89
2023/01/25 05:22:24;;;;;;;61.67;25.27;;;;;;;;;;5014838;28;20022;-89
2023/01/25 05:24:49;;;;;;;59.83;24.90;;;;;;;;;;4996755;28;20117;-89
2023/01/25 05:27:16;;;;;;;54.23;22.60;;;;;;;;;;4997077;28;20022;-89
2023/01/25 05:29:42;;;;;;;57.50;24.03;;;;;;;;;;4997249;28;20481;-89
2023/01/25 05:32:08;;;;;;;58.93;25.17;;;;;;;;;;5014556;28;20021;-89
2023/01/25 05:34:34;;;;;;;57.40;25.63;;;;;;;;;;4997122;28;20033;-89
2023/01/25 05:36:59;;;;;;;66.50;27.60;;;;;;;;;;5012215;28;20025;-89
2023/01/25 05:39:25;;;;;;;72.23;29.30;;;;;;;;;;4995765;28;20060;-90
2023/01/25 05:41:50;;;;;;;65.37;25.83;;;;;;;;;;4997065;28;20422;-89
2023/01/25 05:44:15;;;;;;;65.97;25.17;;;;;;;;;;5014308;28;20025;-89
2023/01/25 05:46:41;;;;;;;73.50;28.03;;;;;;;;;;4996915;28;20052;-89
2023/01/25 05:49:06;;;;;;;67.47;28.00;;;;;;;;;;4996406;28;20410;-89
2023/01/25 05:51:31;;;;;;;70.23;27.23;;;;;;;;;;5014549;28;20030;-89
2023/01/25 05:53:57;;;;;;;72.30;27.40;;;;;;;;;;4996856;28;20026;-89
2023/01/25 05:56:22;;;;;;;63.23;27.17;;;;;;;;;;5014371;28;20022;-89
2023/01/25 05:58:54;;;;;;;62.80;25.33;;;;;;;;;;4996102;28;20057;-89
2023/01/25 06:01:19;;;;;;;67.97;26.52;;;;;;;;;;4996119;28;20022;-89
2023/01/25 06:03:45;;;;;;;63.73;23.90;;;;;;;;;;4996374;28;20029;-89
2023/01/25 06:06:10;;;;;;;63.97;25.97;;;;;;;;;;5014162;28;20488;-89
2023/01/25 06:08:36;;;;;;;72.83;28.50;;;;;;;;;;4996252;28;20018;-89
2023/01/25 06:11:05;;;;;;;77.93;30.97;;;;;;;;;;4996132;28;20098;-90
2023/01/25 06:13:30;;;;;;;72.30;29.03;;;;;;;;;;4996368;28;20568;-88
2023/01/25 06:15:56;;;;;;;80.43;30.67;;;;;;;;;;4996272;28;20076;-90
2023/01/25 06:18:23;;;;;;;77.37;29.27;;;;;;;;;;4996240;28;20068;-89
2023/01/25 06:20:48;;;;;;;76.77;29.33;;;;;;;;;;4995471;28;20120;-89
2023/01/25 06:23:13;;;;;;;77.43;29.83;;;;;;;;;;5012314;28;20014;-89
2023/01/25 06:25:38;;;;;;;80.03;30.83;;;;;;;;;;4996036;28;20060;-89
2023/01/25 06:28:04;;;;;;;78.03;30.10;;;;;;;;;;5013542;28;20044;-89
2023/01/25 06:30:29;;;;;;;72.10;28.53;;;;;;;;;;4995401;28;20458;-89
2023/01/25 06:32:56;;;;;;;71.23;27.73;;;;;;;;;;5013481;28;20045;-89
2023/01/25 06:35:21;;;;;;;74.27;27.23;;;;;;;;;;4995718;28;20030;-89
2023/01/25 06:37:47;;;;;;;80.63;31.27;;;;;;;;;;4996012;28;20444;-89
2023/01/25 06:40:12;;;;;;;73.53;28.00;;;;;;;;;;4995534;28;20088;-89
2023/01/25 06:42:37;;;;;;;70.67;27.80;;;;;;;;;;4995480;28;20036;-89
2023/01/25 06:45:02;;;;;;;76.13;28.17;;;;;;;;;;4992429;28;20173;-89
2023/01/25 06:47:27;;;;;;;71.33;27.80;;;;;;;;;;5012169;28;20022;-89
2023/01/25 06:49:53;;;;;;;72.30;28.50;;;;;;;;;;5011970;28;20029;-89
2023/01/25 06:52:18;;;;;;;80.50;29.80;;;;;;;;;;5013115;28;20025;-89
2023/01/25 06:54:43;;;;;;;75.20;28.37;;;;;;;;;;4995082;28;20028;-89
2023/01/25 06:57:10;;;;;;;83.63;31.00;;;;;;;;;;5013010;28;20022;-89
2023/01/25 06:59:36;;;;;;;92.50;32.63;;;;;;;;;;5012490;28;20428;-89
2023/01/25 07:02:01;;;;;;;86.53;31.53;;;;;;;;;;4995518;28;20061;-88
2023/01/25 07:04:26;;;;;;;69.70;27.90;;;;;;;;;;4995508;28;20021;-89
2023/01/25 07:06:51;;;;;;;70.10;27.93;;;;;;;;;;4995658;28;20056;-89
2023/01/25 07:09:22;;;;;;;75.27;29.70;;;;;;;;;;4995251;28;20479;-88
2023/01/25 07:11:47;;;;;;;75.70;27.53;;;;;;;;;;4994936;28;20113;-89
2023/01/25 07:14:13;;;;;;;73.63;28.90;;;;;;;;;;5012665;28;20104;-90
2023/01/25 07:16:38;;;;;;;68.33;26.80;;;;;;;;;;4995277;28;20025;-89
2023/01/25 07:19:04;;;;;;;79.60;30.50;;;;;;;;;;4995431;28;20492;-89
2023/01/25 07:21:29;;;;;;;80.53;29.97;;;;;;;;;;4995081;28;20029;-89
2023/01/25 07:23:58;;;;;;;73.07;29.43;;;;;;;;;;4993658;28;20107;-89
2023/01/25 07:26:24;;;;;;;64.27;24.60;;;;;;;;;;4995045;28;20072;-89
2023/01/25 07:28:49;;;;;;;68.80;25.30;;;;;;;;;;4995059;28;20145;-88
2023/01/25 07:31:15;;;;;;;77.27;28.47;;;;;;;;;;5012698;28;20458;-89
2023/01/25 07:33:40;;;;;;;75.60;29.30;;;;;;;;;;4995133;28;20017;-89
2023/01/25 07:36:07;;;;;;;71.93;26.97;;;;;;;;;;4994669;28;20030;-89
2023/01/25 07:38:32;;;;;;;76.50;30.17;;;;;;;;;;5012916;28;20033;-88
2023/01/25 07:40:58;;;;;;;63.77;25.10;;;;;;;;;;4994915;28;20041;-89
2023/01/25 07:43:23;;;;;;;66.00;26.70;;;;;;;;;;5012511;28;20032;-89
2023/01/25 07:45:48;;;;;;;73.50;32.17;;;;;;;;;;4995027;28;20075;-89
2023/01/25 07:48:15;;;;;;;69.00;25.93;;;;;;;;;;5012222;28;20052;-89
2023/01/25 07:50:40;;;;;;;68.53;27.40;;;;;;;;;;5012411;28;20018;-89
2023/01/25 07:53:06;;;;;;;72.10;27.33;;;;;;;;;;4994790;28;20109;-89
2023/01/25 07:55:31;;;;;;;81.13;29.23;;;;;;;;;;5011160;28;20034;-89
2023/01/25 07:57:56;;;;;;;73.10;28.23;;;;;;;;;;5011852;28;20017;-89
2023/01/25 08:00:21;;;;;;;69.60;26.73;;;;;;;;;;4989628;28;20397;-89
2023/01/25 08:02:50;;;;;;;70.90;27.13;;;;;;;;;;4998118;28;20080;-88
2023/01/25 08:05:15;;;;;;;70.30;26.03;;;;;;;;;;4998757;28;20057;-89
2023/01/25 08:07:40;;;;;;;72.03;29.30;;;;;;;;;;5016169;28;20473;-89
2023/01/25 08:10:06;;;;;;;67.13;25.50;;;;;;;;;;5015559;28;20049;-89
2023/01/25 08:12:33;;;;;;;73.37;26.10;;;;;;;;;;5015783;28;20028;-89
2023/01/25 08:14:58;;;;;;;65.57;26.00;;;;;;;;;;4997642;28;20074;-89
2023/01/25 08:17:23;;;;;;;70.00;28.03;;;;;;;;;;4998405;28;20025;-89
2023/01/25 08:19:49;;;;;;;71.67;26.20;;;;;;;;;;5015405;28;20026;-89
2023/01/25 08:22:14;;;;;;;81.97;30.67;;;;;;;;;;4998292;28;20030;-90
2023/01/25 08:24:39;;;;;;;76.97;28.87;;;;;;;;;;4997291;28;20052;-89
2023/01/25 08:27:04;;;;;;;79.63;29.30;;;;;;;;;;4997919;28;20013;-89
2023/01/25 08:29:30;;;;;;;81.73;31.07;;;;;;;;;;5015449;28;20014;-90
2023/01/25 08:31:55;;;;;;;72.77;29.17;;;;;;;;;;4998047;28;20547;-88
2023/01/25 08:34:20;;;;;;;77.40;29.50;;;;;;;;;;4998003;28;20382;-88
2023/01/25 08:36:45;;;;;;;74.83;27.87;;;;;;;;;;4998080;28;20085;-89
2023/01/25 08:39:11;;;;;;;76.10;29.00;;;;;;;;;;4997709;28;20030;-88
2023/01/25 08:41:36;;;;;;;88.40;31.40;;;;;;;;;;5014370;28;20021;-88
2023/01/25 08:44:02;;;;;;;78.53;28.33;;;;;;;;;;4984164;28;20022;-89
2023/01/25 08:46:28;;;;;;;75.70;29.53;;;;;;;;;;5004294;28;20030;-88
2023/01/25 08:48:54;;;;;;;75.20;27.80;;;;;;;;;;5015179;28;20018;-89
2023/01/25 08:51:20;;;;;;;71.20;27.53;;;;;;;;;;4997809;28;20552;-89
2023/01/25 08:53:45;;;;;;;73.80;27.67;;;;;;;;;;5015113;28;20068;-88
2023/01/25 08:56:12;;;;;;;74.23;28.27;;;;;;;;;;5009277;28;20033;-89
2023/01/25 08:58:38;;;;;;;70.90;27.40;;;;;;;;;;4997344;28;20455;-90
2023/01/25 09:01:04;;;;;;;65.63;26.17;;;;;;;;;;5015435;28;20089;-89
2023/01/25 09:03:30;;;;;;;72.43;27.67;;;;;;;;;;4997780;28;20034;-89
2023/01/25 09:05:55;;;;;;;71.73;28.93;;;;;;;;;;4997494;28;20113;-89
2023/01/25 09:08:21;;;;;;;71.53;28.03;;;;;;;;;;4996901;28;20430;-89
2023/01/25 09:10:46;;;;;;;82.30;30.63;;;;;;;;;;5014901;28;20029;-89
2023/01/25 09:13:11;;;;;;;76.63;29.07;;;;;;;;;;5014543;28;20025;-89
2023/01/25 09:15:37;;;;;;;79.40;27.83;;;;;;;;;;5015068;28;20021;-89
2023/01/25 09:18:02;;;;;;;69.73;28.60;;;;;;;;;;4997159;28;20381;-88
2023/01/25 09:20:27;;;;;;;68.23;26.57;;;;;;;;;;4996714;28;20045;-89
2023/01/25 09:22:53;;;;;;;82.53;30.13;;;;;;;;;;4996939;28;20020;-89
2023/01/25 09:25:18;;;;;;;77.23;30.73;;;;;;;;;;4996292;28;20029;-89
2023/01/25 09:27:44;;;;;;;74.43;27.33;;;;;;;;;;4997125;28;20109;-89
2023/01/25 09:30:09;;;;;;;78.07;28.40;;;;;;;;;;4995441;28;20060;-88
2023/01/25 09:32:35;;;;;;;74.47;28.37;;;;;;;;;;4996924;28;20109;-89
2023/01/25 09:35:00;;;;;;;75.17;29.03;;;;;;;;;;4996302;28;20022;-89
2023/01/25 09:37:25;;;;;;;71.33;26.73;;;;;;;;;;4997021;28;20105;-89
2023/01/25 09:39:50;;;;;;;79.47;29.20;;;;;;;;;;4995601;28;20060;-89
2023/01/25 09:42:34;;;;;;;74.13;26.50;;;;;;;;;;4995971;28;20188;-89
2023/01/25 09:45:02;;;;;;;81.33;30.13;;;;;;;;;;5013978;28;20018;-88
2023/01/25 09:47:30;;;;;;;85.73;31.80;;;;;;;;;;5000897;28;20018;-89
2023/01/25 09:50:19;;;;;;;77.70;29.73;;;;;;;;;;5013628;28;20115;-89
2023/01/25 09:53:03;;;;;;;85.33;34.67;;;;;;;;;;4972499;28;20034;-89
2023/01/25 09:55:29;;;;;;;85.80;29.70;;;;;;;;;;5014276;28;20049;-89
2023/01/25 09:57:59;;;;;;;79.07;30.40;;;;;;;;;;5013926;28;20014;-89
2023/01/25 10:00:44;;;;;;;78.17;28.90;;;;;;;;;;4995705;28;20022;-89
2023/01/25 10:03:21;;;;;;;86.73;32.03;;;;;;;;;;4996490;28;20462;-89
2023/01/25 10:05:48;;;;;;;86.60;32.13;;;;;;;;;;4996283;28;20033;-89
2023/01/25 10:08:20;;;;;;;83.13;30.23;;;;;;;;;;4996012;28;20026;-89
2023/01/25 10:10:47;;;;;;;91.40;30.90;;;;;;;;;;4995608;28;20539;-90
2023/01/25 10:13:14;;;;;;;85.40;30.30;;;;;;;;;;5013667;28;20026;-89
2023/01/25 10:15:43;;;;;;;83.07;30.77;;;;;;;;;;4996477;28;20458;-89
2023/01/25 10:18:14;;;;;;;88.10;32.20;;;;;;;;;;4996006;28;20018;-88
2023/01/25 10:20:43;;;;;;;85.33;30.30;;;;;;;;;;5013335;28;20014;-90
2023/01/25 10:23:23;;;;;;;86.23;29.77;;;;;;;;;;5013796;28;20310;-89
2023/01/25 10:26:12;;;;;;;92.47;31.63;;;;;;;;;;5013365;28;20044;-89
2023/01/25 10:28:58;;;;;;;88.27;33.37;;;;;;;;;;4995131;28;20026;-89
2023/01/25 10:31:31;;;;;;;81.20;28.90;;;;;;;;;;4995855;28;20045;-89
2023/01/25 10:33:58;;;;;;;84.10;30.23;;;;;;;;;;5013465;28;20058;-89
2023/01/25 10:36:28;;;;;;;87.00;31.60;;;;;;;;;;5012391;28;20038;-89
2023/01/25 10:38:58;;;;;;;81.93;31.53;;;;;;;;;;4995062;28;20032;-89
2023/01/25 10:41:33;;;;;;;87.13;31.97;;;;;;;;;;4995272;28;20413;-89
2023/01/25 10:46:45;;;;;;;74.47;26.03;;;;;;;;;;5013418;28;20024;-89
2023/01/25 10:49:20;;;;;;;78.50;28.77;;;;;;;;;;4988994;28;20025;-89
2023/01/25 10:51:45;;;;;;;89.87;31.47;;;;;;;;;;4995692;28;20389;-89
2023/01/25 10:54:13;;;;;;;86.27;33.30;;;;;;;;;;4994880;28;20137;-87
2023/01/25 10:56:38;;;;;;;83.00;30.90;;;;;;;;;;5012811;28;20069;-89
2023/01/25 10:59:23;;;;;;;86.53;30.50;;;;;;;;;;5011797;28;20018;-89
2023/01/25 11:01:49;;;;;;;92.90;32.13;;;;;;;;;;5013121;28;20072;-89
2023/01/25 11:04:46;;;;;;;88.80;31.83;;;;;;;;;;4994178;28;20021;-89
2023/01/25 11:07:25;;;;;;;88.50;28.83;;;;;;;;;;5001004;28;20042;-90
2023/01/25 11:09:50;;;;;;;93.67;31.27;;;;;;;;;;4995416;28;20029;-89
2023/01/25 11:12:19;;;;;;;94.27;31.37;;;;;;;;;;5011535;28;20018;-88
2023/01/25 11:14:48;;;;;;;96.80;31.90;;;;;;;;;;4994638;28;20093;-90
2023/01/25 11:17:30;;;;;;;90.10;30.20;;;;;;;;;;5012942;28;20287;-89
2023/01/25 11:20:15;;;;;;;87.43;31.42;;;;;;;;;;5004168;28;20050;-89
2023/01/25 11:22:54;;;;;;;80.13;29.23;;;;;;;;;;5010376;28;20083;-89
2023/01/25 11:25:30;;;;;;;90.67;31.07;;;;;;;;;;4995479;28;20508;-89
2023/01/25 11:28:11;;;;;;;92.07;31.63;;;;;;;;;;4995262;28;20087;-89
2023/01/25 11:30:36;;;;;;;89.43;33.77;;;;;;;;;;4995334;28;20108;-89
2023/01/25 11:33:01;;;;;;;87.10;28.87;;;;;;;;;;4994866;28;20061;-89
2023/01/25 11:35:30;;;;;;;92.23;31.40;;;;;;;;;;4996222;28;20080;-89
2023/01/25 11:38:01;;;;;;;99.63;32.50;;;;;;;;;;4998234;28;20419;-89
2023/01/25 11:40:30;;;;;;;87.53;31.70;;;;;;;;;;5013607;28;20087;-89
2023/01/25 11:43:01;;;;;;;84.77;31.40;;;;;;;;;;4999216;28;20097;-88
2023/01/25 11:45:26;;;;;;;96.53;32.67;;;;;;;;;;4996297;28;20478;-88
2023/01/25 11:47:58;;;;;;;87.00;30.37;;;;;;;;;;4998969;28;20022;-89
2023/01/25 11:50:32;;;;;;;82.17;28.40;;;;;;;;;;4998860;28;20029;-89
2023/01/25 11:52:58;;;;;;;84.00;27.97;;;;;;;;;;4998209;28;20079;-89
2023/01/25 11:55:44;;;;;;;78.43;27.33;;;;;;;;;;5013497;28;20025;-88
2023/01/25 11:58:15;;;;;;;79.13;27.87;;;;;;;;;;5013397;28;20014;-89
2023/01/25 12:00:58;;;;;;;81.00;28.97;;;;;;;;;;4998447;28;20026;-89
2023/01/25 12:03:35;;;;;;;80.50;27.03;;;;;;;;;;4998795;28;20468;-89
2023/01/25 12:06:12;;;;;;;87.63;29.03;;;;;;;;;;4998662;28;20092;-89
2023/01/25 12:09:06;;;;;;;80.00;30.27;;;;;;;;;;5016212;28;20104;-90
2023/01/25 12:11:51;;;;;;;85.17;28.67;;;;;;;;;;4935823;28;20107;-89
2023/01/25 12:14:19;;;;;;;76.57;27.50;;;;;;;;;;4998303;28;20022;-89
2023/01/25 12:17:02;;;;;;;79.60;27.53;;;;;;;;;;4998675;28;20022;-89
2023/01/25 12:19:33;;;;;;;77.87;27.60;;;;;;;;;;5016444;28;20022;-89
2023/01/25 12:21:58;;;;;;;78.87;27.73;;;;;;;;;;4997935;28;20112;-89
2023/01/25 12:24:42;;;;;;;80.20;27.63;;;;;;;;;;4998255;28;20105;-89
2023/01/25 12:27:26;;;;;;;88.17;28.73;;;;;;;;;;5015665;28;20124;-89
2023/01/25 12:30:03;;;;;;;77.87;28.47;;;;;;;;;;4998021;28;20108;-89
2023/01/25 12:32:28;;;;;;;87.20;29.30;;;;;;;;;;4997438;28;20045;-89
2023/01/25 12:35:02;;;;;;;81.00;29.63;;;;;;;;;;4998203;28;20037;-89
2023/01/25 12:37:31;;;;;;;88.43;30.73;;;;;;;;;;4998146;28;20037;-89
2023/01/25 12:40:02;;;;;;;85.73;29.87;;;;;;;;;;4997864;28;20041;-89
2023/01/25 12:42:30;;;;;;;85.23;30.23;;;;;;;;;;5014950;28;20025;-89
2023/01/25 12:45:03;;;;;;;90.93;30.60;;;;;;;;;;4997406;28;20013;-89
2023/01/25 12:47:28;;;;;;;;;;;;;;;;;;4997591;28;20021;-90
2023/01/25 12:49:56;;;;;;;86.43;29.67;;;;;;;;;;5015271;28;20222;-89
2023/01/25 12:52:26;;;;;;;94.13;32.00;;;;;;;;;;5013058;28;20477;-89
2023/01/25 12:54:54;;;;;;;90.00;35.07;;;;;;;;;;4997660;28;20037;-89
2023/01/25 12:57:25;;;;;;;81.23;32.90;;;;;;;;;;4997664;28;20018;-89
2023/01/25 13:00:29;;;;;;;86.50;33.63;;;;;;;;;;4997536;28;20148;-89
2023/01/25 13:03:00;;;;;;;82.57;29.57;;;;;;;;;;4916726;29;20149;-89
2023/01/25 13:05:32;;;;;;;76.20;29.53;;;;;;;;;;4948812;29;20031;-88
2023/01/25 13:08:05;;;;;;;92.57;33.70;;;;;;;;;;4962133;28;20026;-89
2023/01/25 13:10:38;;;;;;;90.67;35.07;;;;;;;;;;4997348;28;20029;-89
2023/01/25 13:13:16;;;;;;;83.47;31.97;;;;;;;;;;4993892;28;20022;-88
2023/01/25 13:15:42;;;;;;;82.23;29.30;;;;;;;;;;4997277;28;20057;-89
2023/01/25 13:18:23;;;;;;;83.50;28.67;;;;;;;;;;4996971;28;20315;-89
2023/01/25 13:20:49;;;;;;;83.77;30.77;;;;;;;;;;4997024;28;20026;-88
2023/01/25 13:23:31;;;;;;;77.27;26.93;;;;;;;;;;5012709;28;20022;-88
2023/01/25 13:26:16;;;;;;;75.70;27.38;;;;;;;;;;4995756;28;20026;-89
2023/01/25 13:28:43;;;;;;;80.13;28.40;;;;;;;;;;4995606;28;20022;-89
2023/01/25 13:31:09;;;;;;;79.97;29.57;;;;;;;;;;4997036;28;20052;-88
2023/01/25 13:33:34;;;;;;;81.50;30.57;;;;;;;;;;5014622;28;20159;-88
2023/01/25 13:36:22;;;;;;;71.07;26.87;;;;;;;;;;4997139;28;20018;-89
2023/01/25 13:38:47;;;;;;;80.63;28.23;;;;;;;;;;4995539;28;20014;-89
2023/01/25 13:41:15;;;;;;;77.07;27.43;;;;;;;;;;5014291;28;20033;-89
2023/01/25 13:43:42;;;;;;;80.13;28.20;;;;;;;;;;4996450;28;20109;-89
2023/01/25 13:46:09;;;;;;;80.33;28.33;;;;;;;;;;4996249;28;20018;-89
2023/01/25 13:48:34;;;;;;;81.60;28.90;;;;;;;;;;4996385;28;20075;-89
2023/01/25 13:51:02;;;;;;;75.70;28.00;;;;;;;;;;5012243;28;20108;-89
2023/01/25 13:53:31;;;;;;;77.23;30.03;;;;;;;;;;4996993;28;20045;-89
2023/01/25 13:55:57;;;;;;;63.97;24.47;;;;;;;;;;4981712;28;20327;-88
2023/01/25 13:58:25;;;;;;;75.77;28.13;;;;;;;;;;4994600;28;20028;-89
2023/01/25 14:00:56;;;;;;;74.23;26.33;;;;;;;;;;4995415;28;20022;-89
2023/01/25 14:03:24;;;;;;;61.87;23.47;;;;;;;;;;4994772;28;20030;-89
2023/01/25 14:05:51;;;;;;;68.00;27.60;;;;;;;;;;4995709;28;20021;-89
2023/01/25 14:08:17;;;;;;;69.50;26.80;;;;;;;;;;4996571;28;20049;-89
2023/01/25 14:10:42;;;;;;;75.93;28.70;;;;;;;;;;4996174;28;20080;-89
2023/01/25 14:13:12;;;;;;;72.80;28.13;;;;;;;;;;4996237;28;20013;-89
2023/01/25 14:15:37;;;;;;;77.07;28.90;;;;;;;;;;5012017;28;20049;-89
2023/01/25 14:18:18;;;;;;;77.80;27.37;;;;;;;;;;4995998;28;20061;-88
2023/01/25 14:20:52;;;;;;;81.70;28.53;;;;;;;;;;5110600;27;20372;-90
2023/01/25 14:23:26;;;;;;;72.70;27.23;;;;;;;;;;5109695;28;20020;-89
2023/01/25 14:25:52;;;;;;;71.00;25.77;;;;;;;;;;5100446;28;20063;-89